createdAt,value
2018-01-22T00:00:07.810Z,7.97
2018-01-22T00:02:36.158Z,8.52
2018-01-22T00:05:04.503Z,12.48
2018-01-22T00:07:32.886Z,11.48
2018-01-22T00:10:01.270Z,8.20
2018-01-22T00:12:29.612Z,9.40
2018-01-22T00:14:57.966Z,7.93
2018-01-22T00:17:26.327Z,6.85
2018-01-22T00:19:54.681Z,8.57
2018-01-22T00:22:23.048Z,8.65
2018-01-22T00:24:51.425Z,7.82
2018-01-22T00:27:19.777Z,7.80
2018-01-22T00:29:48.129Z,7.43
2018-01-22T00:32:16.470Z,6.60
2018-01-22T00:34:44.832Z,6.55
2018-01-22T00:37:13.302Z,6.00
2018-01-22T00:39:41.644Z,5.95
2018-01-22T00:42:10.011Z,8.85
2018-01-22T00:44:38.358Z,14.20
2018-01-22T00:47:06.716Z,11.43
2018-01-22T00:49:35.104Z,10.40
2018-01-22T00:52:03.460Z,11.15
2018-01-22T00:54:31.807Z,11.73
2018-01-22T00:57:00.159Z,10.20
2018-01-22T00:59:28.507Z,12.77
2018-01-22T01:01:56.882Z,12.07
2018-01-22T01:04:25.235Z,14.32
2018-01-22T01:06:53.588Z,15.75
2018-01-22T01:09:21.932Z,11.82
2018-01-22T01:11:50.290Z,14.77
2018-01-22T01:14:18.674Z,12.75
2018-01-22T01:16:47.039Z,12.35
2018-01-22T01:19:15.382Z,12.63
2018-01-22T01:21:43.759Z,14.50
2018-01-22T01:24:12.095Z,12.82
2018-01-22T01:26:40.491Z,15.15
2018-01-22T01:29:08.842Z,12.80
2018-01-22T01:31:37.187Z,11.25
2018-01-22T01:34:05.531Z,9.07
2018-01-22T01:36:33.883Z,11.68
2018-01-22T01:39:02.266Z,9.73
2018-01-22T01:41:30.635Z,9.30
2018-01-22T01:43:58.977Z,8.73
2018-01-22T01:46:27.386Z,8.20
2018-01-22T01:49:03.582Z,8.32
2018-01-22T01:51:31.954Z,7.05
2018-01-22T01:54:00.300Z,5.57
2018-01-22T01:56:28.639Z,9.10
2018-01-22T01:58:56.996Z,9.07
2018-01-22T02:01:25.333Z,9.43
2018-01-22T02:03:53.738Z,6.75
2018-01-22T02:06:22.083Z,6.03
2018-01-22T02:08:50.450Z,5.78
2018-01-22T02:11:18.815Z,5.75
2018-01-22T02:13:47.271Z,7.10
2018-01-22T02:16:15.648Z,7.32
2018-01-22T02:18:44.014Z,5.10
2018-01-22T02:21:12.368Z,4.00
2018-01-22T02:23:40.716Z,4.75
2018-01-22T02:26:09.078Z,4.97
2018-01-22T02:28:37.433Z,4.93
2018-01-22T02:31:05.792Z,6.07
2018-01-22T02:33:34.238Z,3.33
2018-01-22T02:36:02.683Z,3.45
2018-01-22T02:38:31.039Z,3.83
2018-01-22T02:40:59.390Z,4.43
2018-01-22T02:43:27.759Z,3.60
2018-01-22T02:45:56.141Z,2.87
2018-01-22T02:48:24.491Z,3.50
2018-01-22T02:50:52.836Z,5.18
2018-01-22T02:53:21.229Z,5.18
2018-01-22T02:55:49.856Z,3.92
2018-01-22T02:58:18.348Z,4.32
2018-01-22T03:00:46.698Z,4.85
2018-01-22T03:03:15.046Z,3.97
2018-01-22T03:05:43.411Z,3.90
2018-01-22T03:08:11.744Z,3.85
2018-01-22T03:10:40.143Z,3.60
2018-01-22T03:13:08.499Z,4.45
2018-01-22T03:15:36.884Z,3.08
2018-01-22T03:18:05.211Z,3.30
2018-01-22T03:20:33.563Z,2.65
2018-01-22T03:23:02.035Z,2.70
2018-01-22T03:25:30.444Z,3.08
2018-01-22T03:27:58.786Z,2.40
2018-01-22T03:30:27.137Z,2.90
2018-01-22T03:32:55.466Z,2.55
2018-01-22T03:35:23.860Z,2.12
2018-01-22T03:37:52.312Z,2.08
2018-01-22T03:40:20.665Z,2.45
2018-01-22T03:42:49.199Z,3.28
2018-01-22T03:45:17.562Z,2.47
2018-01-22T03:47:45.930Z,3.40
2018-01-22T03:50:14.289Z,2.37
2018-01-22T03:52:42.660Z,1.75
2018-01-22T03:55:10.992Z,2.03
2018-01-22T03:57:39.346Z,1.67
2018-01-22T04:00:32.923Z,1.70
2018-01-22T04:03:01.269Z,2.40
2018-01-22T04:05:29.750Z,1.70
2018-01-22T04:07:58.097Z,1.67
2018-01-22T04:10:26.443Z,1.58
2018-01-22T04:12:54.814Z,1.40
2018-01-22T04:15:23.153Z,1.23
2018-01-22T04:17:51.495Z,1.30
2018-01-22T04:20:19.879Z,3.30
2018-01-22T04:22:48.230Z,1.50
2018-01-22T04:25:16.585Z,2.10
2018-01-22T04:27:44.991Z,1.25
2018-01-22T04:30:13.336Z,1.08
2018-01-22T04:32:41.698Z,1.30
2018-01-22T04:35:10.078Z,1.58
2018-01-22T04:37:38.427Z,1.20
2018-01-22T04:40:06.763Z,1.87
2018-01-22T04:42:35.135Z,0.90
2018-01-22T04:45:03.503Z,1.02
2018-01-22T04:47:31.847Z,1.40
2018-01-22T04:50:00.233Z,1.05
2018-01-22T04:52:28.593Z,0.80
2018-01-22T04:54:56.974Z,1.85
2018-01-22T04:57:25.359Z,1.20
2018-01-22T04:59:53.698Z,0.80
2018-01-22T05:02:22.110Z,0.85
2018-01-22T05:04:50.478Z,0.80
2018-01-22T05:07:18.832Z,0.70
2018-01-22T05:09:47.171Z,0.60
2018-01-22T05:12:15.554Z,0.95
2018-01-22T05:14:43.894Z,0.82
2018-01-22T05:17:12.238Z,0.75
2018-01-22T05:19:40.598Z,0.80
2018-01-22T05:22:08.938Z,0.85
2018-01-22T05:24:37.275Z,1.17
2018-01-22T05:27:05.681Z,0.60
2018-01-22T05:29:34.032Z,0.73
2018-01-22T05:32:02.374Z,0.75
2018-01-22T05:34:30.754Z,0.88
2018-01-22T05:36:59.090Z,0.70
2018-01-22T05:39:27.442Z,0.75
2018-01-22T05:41:55.917Z,0.80
2018-01-22T05:44:24.262Z,0.90
2018-01-22T05:46:52.631Z,0.80
2018-01-22T05:49:21.022Z,0.75
2018-01-22T05:51:49.384Z,0.70
2018-01-22T05:54:17.739Z,0.70
2018-01-22T05:56:46.106Z,0.60
2018-01-22T05:59:14.463Z,0.68
2018-01-22T06:01:42.815Z,0.70
2018-01-22T06:04:11.224Z,0.75
2018-01-22T06:06:38.848Z,0.90
2018-01-22T06:09:06.988Z,1.27
2018-01-22T06:11:35.328Z,1.17
2018-01-22T06:14:03.681Z,0.60
2018-01-22T06:16:32.021Z,0.90
2018-01-22T06:19:00.380Z,0.88
2018-01-22T06:21:28.765Z,1.02
2018-01-22T06:23:57.099Z,0.90
2018-01-22T06:26:25.439Z,0.60
2018-01-22T06:28:53.787Z,0.70
2018-01-22T06:31:22.149Z,1.17
2018-01-22T06:33:50.538Z,0.95
2018-01-22T06:36:18.873Z,1.05
2018-01-22T06:38:47.234Z,1.10
2018-01-22T06:41:15.598Z,1.02
2018-01-22T06:43:43.943Z,0.90
2018-01-22T06:46:12.361Z,1.35
2018-01-22T06:48:40.726Z,1.20
2018-01-22T06:51:09.071Z,0.88
2018-01-22T06:53:37.413Z,1.52
2018-01-22T06:56:05.773Z,1.35
2018-01-22T06:58:34.151Z,1.08
2018-01-22T07:01:02.491Z,1.48
2018-01-22T07:03:30.859Z,1.37
2018-01-22T07:05:59.338Z,16.27
2018-01-22T07:08:27.694Z,13.93
2018-01-22T07:10:56.246Z,7.82
2018-01-22T07:13:24.593Z,7.12
2018-01-22T07:15:52.981Z,1.70
2018-01-22T07:18:21.335Z,2.67
2018-01-22T07:20:49.726Z,2.72
2018-01-22T07:23:19.767Z,3.05
2018-01-22T07:25:48.118Z,3.62
2018-01-22T07:28:16.500Z,1.70
2018-01-22T07:30:44.855Z,2.72
2018-01-22T07:33:13.215Z,36.45
2018-01-22T07:35:41.747Z,76.78
2018-01-22T07:38:10.116Z,3.30
2018-01-22T07:40:38.467Z,3.85
2018-01-22T07:43:06.916Z,35.22
2018-01-22T07:45:35.267Z,2.45
2018-01-22T07:48:03.645Z,4.20
2018-01-22T07:50:33.134Z,3.05
2018-01-22T07:53:01.503Z,2.58
2018-01-22T07:55:29.985Z,1.92
2018-01-22T07:57:58.351Z,4.20
2018-01-22T08:00:26.744Z,4.80
2018-01-22T08:02:55.091Z,1.08
2018-01-22T08:05:23.467Z,1.15
2018-01-22T08:07:51.818Z,1.50
2018-01-22T08:10:20.179Z,6.10
2018-01-22T08:12:48.574Z,1.70
2018-01-22T08:15:16.928Z,2.65
2018-01-22T08:17:45.279Z,2.53
2018-01-22T08:20:13.646Z,1.40
2018-01-22T08:22:42.009Z,2.60
2018-01-22T08:25:10.488Z,3.53
2018-01-22T08:27:38.834Z,5.12
2018-01-22T08:30:07.190Z,3.83
2018-01-22T08:32:35.556Z,2.87
2018-01-22T08:35:03.925Z,6.68
2018-01-22T08:37:32.298Z,8.65
2018-01-22T08:40:00.645Z,3.08
2018-01-22T08:42:29.004Z,4.22
2018-01-22T08:44:57.351Z,6.30
2018-01-22T08:47:25.694Z,6.03
2018-01-22T08:49:54.087Z,1.00
2018-01-22T08:52:22.440Z,3.22
2018-01-22T08:54:50.834Z,2.10
2018-01-22T08:57:19.198Z,1.17
2018-01-22T08:59:47.536Z,5.90
2018-01-22T09:02:16.027Z,1.50
2018-01-22T09:04:44.415Z,2.15
2018-01-22T09:07:12.784Z,2.87
2018-01-22T09:09:41.142Z,4.10
2018-01-22T09:12:09.482Z,2.60
2018-01-22T09:14:37.979Z,4.97
2018-01-22T09:17:07.248Z,2.40
2018-01-22T09:19:35.605Z,2.70
2018-01-22T09:22:04.024Z,4.87
2018-01-22T09:24:32.481Z,4.53
2018-01-22T09:27:00.854Z,1.70
2018-01-22T09:29:29.214Z,1.53
2018-01-22T09:31:57.561Z,11.00
2018-01-22T09:34:25.907Z,7.90
2018-01-22T09:36:54.266Z,9.40
2018-01-22T09:39:22.671Z,9.77
2018-01-22T09:41:51.041Z,6.80
2018-01-22T09:44:19.383Z,4.80
2018-01-22T09:46:47.728Z,5.80
2018-01-22T09:49:16.099Z,2.10
2018-01-22T09:51:44.569Z,2.70
2018-01-22T09:54:12.931Z,6.20
2018-01-22T09:56:41.259Z,10.00
2018-01-22T09:59:09.612Z,3.30
2018-01-22T10:01:37.967Z,8.00
2018-01-22T10:04:06.460Z,8.93
2018-01-22T10:06:34.907Z,8.07
2018-01-22T10:09:03.306Z,8.80
2018-01-22T10:11:31.620Z,10.20
2018-01-22T10:13:59.990Z,3.67
2018-01-22T10:16:28.387Z,5.17
2018-01-22T10:18:56.804Z,16.33
2018-01-22T10:21:25.178Z,6.17
2018-01-22T10:23:53.525Z,9.37
2018-01-22T10:26:21.886Z,11.53
2018-01-22T10:28:50.304Z,10.30
2018-01-22T10:31:18.680Z,13.63
2018-01-22T10:33:47.058Z,9.10
2018-01-22T10:36:15.403Z,3.87
2018-01-22T10:38:43.754Z,4.00
2018-01-22T10:41:12.190Z,4.60
2018-01-22T10:43:40.540Z,2.87
2018-01-22T10:46:08.893Z,8.23
2018-01-22T10:48:37.235Z,5.63
2018-01-22T10:51:05.585Z,7.37
2018-01-22T10:53:33.996Z,9.50
2018-01-22T10:56:02.351Z,6.90
2018-01-22T10:58:31.664Z,11.50
2018-01-22T11:01:00.038Z,9.27
2018-01-22T11:03:28.418Z,9.67
2018-01-22T11:05:56.791Z,16.70
2018-01-22T11:08:25.152Z,20.97
2018-01-22T11:10:53.631Z,14.23
2018-01-22T11:13:22.007Z,15.63
2018-01-22T11:15:56.011Z,14.47
2018-01-22T11:18:24.394Z,19.70
2018-01-22T11:20:52.756Z,20.17
2018-01-22T11:23:21.123Z,19.50
2018-01-22T11:25:49.474Z,13.77
2018-01-22T11:28:17.859Z,23.90
2018-01-22T11:30:46.211Z,15.00
2018-01-22T11:33:14.568Z,15.80
2018-01-22T11:35:42.928Z,19.40
2018-01-22T11:38:11.288Z,16.60
2018-01-22T11:40:39.809Z,24.93
2018-01-22T11:43:21.609Z,17.00
2018-01-22T11:45:50.846Z,23.30
2018-01-22T11:48:19.895Z,15.27
2018-01-22T11:50:48.255Z,16.40
2018-01-22T11:53:16.652Z,14.73
2018-01-22T11:55:45.056Z,22.50
2018-01-22T11:58:13.427Z,18.97
2018-01-22T12:00:41.859Z,20.80
2018-01-22T12:03:10.244Z,19.53
2018-01-22T12:05:38.620Z,24.20
2018-01-22T12:08:07.030Z,16.67
2018-01-22T12:10:35.382Z,19.20
2018-01-22T12:13:03.806Z,18.43
2018-01-22T12:15:32.233Z,19.20
2018-01-22T12:18:00.734Z,28.47
2018-01-22T12:20:29.082Z,28.00
2018-01-22T12:22:57.481Z,20.13
2018-01-22T12:25:25.835Z,21.17
2018-01-22T12:27:54.233Z,26.53
2018-01-22T12:30:22.756Z,29.13
2018-01-22T12:33:07.543Z,23.33
2018-01-22T12:35:35.935Z,24.53
2018-01-22T12:38:04.361Z,22.70
2018-01-22T12:40:32.843Z,22.50
2018-01-22T12:43:01.196Z,22.57
2018-01-22T12:45:29.625Z,26.53
2018-01-22T12:47:58.044Z,26.13
2018-01-22T12:50:26.426Z,26.57
2018-01-22T12:53:01.536Z,31.73
2018-01-22T12:55:30.047Z,27.63
2018-01-22T12:58:00.332Z,20.63
2018-01-22T13:00:28.787Z,23.17
2018-01-22T13:02:57.233Z,26.75
2018-01-22T13:05:25.594Z,32.70
2018-01-22T13:07:53.943Z,33.17
2018-01-22T13:10:22.314Z,32.20
2018-01-22T13:12:50.864Z,31.43
2018-01-22T13:15:19.255Z,32.00
2018-01-22T13:17:47.739Z,37.83
2018-01-22T13:20:31.827Z,26.20
2018-01-22T13:23:07.313Z,33.53
2018-01-22T13:25:39.612Z,25.47
2018-01-22T13:28:08.297Z,29.70
2018-01-22T13:30:42.981Z,33.10
2018-01-22T13:33:19.036Z,29.80
2018-01-22T13:35:47.505Z,29.40
2018-01-22T13:38:15.872Z,27.67
2018-01-22T13:40:49.799Z,36.27
2018-01-22T13:43:19.101Z,27.57
2018-01-22T13:45:47.460Z,29.77
2018-01-22T13:48:24.540Z,24.10
2018-01-22T13:50:52.906Z,24.13
2018-01-22T13:53:21.299Z,28.00
2018-01-22T13:55:49.676Z,34.77
2018-01-22T13:58:18.052Z,28.50
2018-01-22T14:00:46.446Z,32.58
2018-01-22T14:03:14.799Z,33.57
2018-01-22T14:05:44.163Z,32.10
2018-01-22T14:08:12.527Z,36.10
2018-01-22T14:10:40.916Z,34.80
2018-01-22T14:13:09.293Z,36.17
2018-01-22T14:15:37.826Z,33.90
2018-01-22T14:18:06.347Z,43.65
2018-01-22T14:20:35.337Z,34.85
2018-01-22T14:23:03.874Z,36.42
2018-01-22T14:25:32.467Z,46.22
2018-01-22T14:28:01.027Z,40.33
2018-01-22T14:30:30.379Z,29.73
2018-01-22T14:32:58.768Z,30.45
2018-01-22T14:35:27.152Z,28.65
2018-01-22T14:37:56.348Z,28.65
2018-01-22T14:40:24.694Z,30.80
2018-01-22T14:42:53.099Z,33.83
2018-01-22T14:45:21.461Z,31.83
2018-01-22T14:47:54.655Z,33.22
2018-01-22T14:50:23.036Z,52.62
2018-01-22T14:52:57.351Z,27.10
2018-01-22T14:55:25.747Z,37.90
2018-01-22T14:57:54.125Z,26.52
2018-01-22T15:00:22.484Z,27.47
2018-01-22T15:02:51.004Z,26.50
2018-01-22T15:05:19.426Z,29.10
2018-01-22T15:07:47.820Z,30.43
2018-01-22T15:10:16.231Z,32.13
2018-01-22T15:12:45.504Z,27.50
2018-01-22T15:15:14.425Z,25.20
2018-01-22T15:17:42.930Z,30.00
2018-01-22T15:20:11.359Z,23.75
2018-01-22T15:22:39.921Z,16.55
2018-01-22T15:25:08.277Z,20.73
2018-01-22T15:27:36.624Z,22.50
2018-01-22T15:30:05.095Z,19.95
2018-01-22T15:32:33.454Z,20.15
2018-01-22T15:35:01.841Z,20.67
2018-01-22T15:37:30.230Z,27.23
2018-01-22T15:39:58.655Z,21.33
2018-01-22T15:42:27.045Z,25.92
2018-01-22T15:44:55.401Z,19.63
2018-01-22T15:47:23.805Z,23.27
2018-01-22T15:49:53.003Z,26.87
2018-01-22T15:52:21.366Z,25.40
2018-01-22T15:54:49.704Z,30.73
2018-01-22T15:57:18.090Z,33.05
2018-01-22T15:59:46.446Z,28.90
2018-01-22T16:02:14.851Z,26.60
2018-01-22T16:04:43.231Z,27.37
2018-01-22T16:07:11.582Z,24.73
2018-01-22T16:09:39.946Z,26.03
2018-01-22T16:12:08.316Z,19.10
2018-01-22T16:14:36.691Z,32.77
2018-01-22T16:17:05.071Z,31.47
2018-01-22T16:19:33.449Z,19.85
2018-01-22T16:22:01.828Z,30.58
2018-01-22T16:24:30.219Z,19.65
2018-01-22T16:26:58.604Z,17.20
2018-01-22T16:29:26.974Z,15.27
2018-01-22T16:31:55.351Z,20.83
2018-01-22T16:34:23.759Z,24.37
2018-01-22T16:36:52.080Z,19.67
2018-01-22T16:39:20.480Z,12.75
2018-01-22T16:41:48.868Z,13.27
2018-01-22T16:44:17.270Z,13.57
2018-01-22T16:46:51.171Z,11.90
2018-01-22T16:49:19.541Z,14.20
2018-01-22T16:51:47.888Z,22.33
2018-01-22T16:54:16.246Z,15.82
2018-01-22T16:56:44.630Z,19.80
2018-01-22T16:59:12.979Z,13.70
2018-01-22T17:01:41.348Z,27.97
2018-01-22T17:04:09.718Z,22.95
2018-01-22T17:06:38.076Z,23.02
2018-01-22T17:09:06.514Z,27.00
2018-01-22T17:11:34.895Z,26.80
2018-01-22T17:14:03.273Z,20.90
2018-01-22T17:16:32.662Z,21.25
2018-01-22T17:19:01.028Z,19.52
2018-01-22T17:21:33.218Z,23.50
2018-01-22T17:24:01.602Z,35.20
2018-01-22T17:26:29.976Z,20.47
2018-01-22T17:28:58.340Z,20.60
2018-01-22T17:31:26.707Z,21.60
2018-01-22T17:33:55.127Z,28.02
2018-01-22T17:36:23.511Z,27.13
2018-01-22T17:38:51.874Z,24.15
2018-01-22T17:41:20.435Z,35.83
2018-01-22T17:43:48.803Z,26.77
2018-01-22T17:46:24.105Z,27.48
2018-01-22T17:48:52.552Z,22.93
2018-01-22T17:51:20.899Z,23.93
2018-01-22T17:53:49.248Z,24.67
2018-01-22T17:56:17.631Z,19.70
2018-01-22T17:58:47.923Z,23.50
2018-01-22T18:01:16.270Z,26.67
2018-01-22T18:03:44.686Z,22.50
2018-01-22T18:06:14.122Z,33.03
2018-01-22T18:08:42.556Z,26.97
2018-01-22T18:11:11.554Z,29.47
2018-01-22T18:13:45.656Z,22.65
2018-01-22T18:16:26.430Z,34.40
2018-01-22T18:19:02.511Z,26.83
2018-01-22T18:21:30.928Z,22.97
2018-01-22T18:23:59.751Z,25.93
2018-01-22T18:26:33.959Z,27.37
2018-01-22T18:29:03.422Z,29.90
2018-01-22T18:31:31.806Z,30.40
2018-01-22T18:34:08.503Z,33.23
2018-01-22T18:36:37.877Z,21.90
2018-01-22T18:39:06.692Z,26.00
2018-01-22T18:41:36.051Z,36.83
2018-01-22T18:44:11.820Z,33.43
2018-01-22T18:46:41.375Z,47.37
2018-01-22T18:49:09.880Z,56.43
2018-01-22T18:51:39.097Z,66.63
2018-01-22T18:54:08.567Z,47.90
2018-01-22T18:56:37.126Z,34.13
2018-01-22T18:59:06.798Z,42.77
2018-01-22T19:04:08.541Z,35.47
2018-01-22T19:06:44.205Z,33.87
2018-01-22T19:09:17.810Z,28.47
2018-01-22T19:11:46.447Z,31.43
2018-01-22T19:14:15.085Z,32.27
2018-01-22T19:16:43.586Z,41.93
2018-01-22T19:19:11.939Z,28.23
2018-01-22T19:21:40.291Z,33.53
2018-01-22T19:24:08.794Z,45.60
2018-01-22T19:26:37.164Z,29.97
2018-01-22T19:29:05.803Z,36.50
2018-01-22T19:31:34.211Z,34.13
2018-01-22T19:34:03.542Z,29.60
2018-01-22T19:36:32.003Z,31.47
2018-01-22T19:39:00.703Z,36.07
2018-01-22T19:41:31.051Z,29.90
2018-01-22T19:43:59.360Z,29.73
2018-01-22T19:46:27.719Z,37.67
2018-01-22T19:48:56.217Z,38.97
2018-01-22T19:51:24.579Z,39.67
2018-01-22T19:53:52.951Z,39.70
2018-01-22T19:56:21.304Z,35.23
2018-01-22T19:58:57.693Z,28.77
2018-01-22T20:01:29.474Z,27.63
2018-01-22T20:04:17.852Z,24.07
2018-01-22T20:06:48.223Z,36.57
2018-01-22T20:09:16.704Z,30.13
2018-01-22T20:11:47.120Z,27.83
2018-01-22T20:14:16.378Z,35.63
2018-01-22T20:16:44.730Z,33.27
2018-01-22T20:19:16.126Z,29.20
2018-01-22T20:21:44.587Z,29.60
2018-01-22T20:24:13.027Z,36.90
2018-01-22T20:26:42.985Z,31.13
2018-01-22T20:29:11.356Z,29.77
2018-01-22T20:31:39.748Z,32.83
2018-01-22T20:34:08.226Z,27.60
2018-01-22T20:36:36.621Z,35.30
2018-01-22T20:39:05.100Z,36.10
2018-01-22T20:41:33.451Z,36.03
2018-01-22T20:44:01.880Z,36.40
2018-01-22T20:46:30.275Z,33.13
2018-01-22T20:48:58.639Z,38.77
2018-01-22T20:51:26.982Z,40.73
2018-01-22T20:53:55.372Z,36.57
2018-01-22T20:56:23.752Z,45.73
2018-01-22T20:58:52.115Z,31.97
2018-01-22T21:01:20.514Z,33.50
2018-01-22T21:03:48.921Z,35.77
2018-01-22T21:06:17.374Z,29.73
2018-01-22T21:08:45.893Z,39.00
2018-01-22T21:11:14.272Z,32.60
2018-01-22T21:13:42.614Z,38.53
2018-01-22T21:16:10.983Z,36.17
2018-01-22T21:18:39.351Z,33.90
2018-01-22T21:21:07.793Z,38.90
2018-01-22T21:23:36.177Z,29.57
2018-01-22T21:26:04.716Z,45.23
2018-01-22T21:28:33.119Z,46.93
2018-01-22T21:31:01.630Z,30.03
2018-01-22T21:33:30.068Z,38.73
2018-01-22T21:35:58.520Z,49.50
2018-01-22T21:38:26.913Z,45.20
2018-01-22T21:40:55.318Z,45.13
2018-01-22T21:43:23.671Z,51.43
2018-01-22T21:45:52.026Z,44.60
2018-01-22T21:48:20.390Z,43.47
2018-01-22T21:50:48.772Z,48.50
2018-01-22T21:53:17.160Z,50.23
2018-01-22T21:55:45.538Z,38.90
2018-01-22T21:58:15.950Z,57.57
2018-01-22T22:00:44.304Z,44.60
2018-01-22T22:03:12.861Z,42.22
2018-01-22T22:05:41.211Z,46.47
2018-01-22T22:08:09.695Z,43.87
2018-01-22T22:10:38.105Z,42.17
2018-01-22T22:13:07.363Z,46.60
2018-01-22T22:15:35.780Z,44.93
2018-01-22T22:18:04.193Z,50.80
2018-01-22T22:20:32.558Z,41.80
2018-01-22T22:23:00.955Z,56.27
2018-01-22T22:25:29.415Z,46.60
2018-01-22T22:27:57.813Z,48.03
2018-01-22T22:30:26.172Z,41.33
2018-01-22T22:32:54.978Z,38.50
2018-01-22T22:35:23.401Z,51.10
2018-01-22T22:37:51.769Z,45.93
2018-01-22T22:40:20.135Z,44.43
2018-01-22T22:42:48.606Z,38.13
2018-01-22T22:45:16.980Z,44.87
2018-01-22T22:47:45.342Z,44.33
2018-01-22T22:50:13.695Z,46.37
2018-01-22T22:52:42.064Z,45.53
2018-01-22T22:55:10.438Z,44.80
2018-01-22T22:57:38.807Z,39.58
2018-01-22T23:00:07.555Z,37.13
2018-01-22T23:02:35.913Z,36.53
2018-01-22T23:05:04.301Z,35.93
2018-01-22T23:07:32.689Z,43.70
2018-01-22T23:10:01.062Z,33.00
2018-01-22T23:12:30.332Z,55.67
2018-01-22T23:14:58.683Z,44.60
2018-01-22T23:17:27.125Z,39.63
2018-01-22T23:19:55.543Z,39.00
2018-01-22T23:22:23.978Z,40.93
2018-01-22T23:24:52.340Z,40.13
2018-01-22T23:27:20.699Z,46.30
2018-01-22T23:29:49.067Z,48.27
2018-01-22T23:32:17.415Z,40.13
2018-01-22T23:34:45.814Z,34.70
2018-01-22T23:37:14.167Z,61.77
2018-01-22T23:39:42.545Z,42.47
2018-01-22T23:42:10.936Z,49.20
2018-01-22T23:44:39.321Z,41.57
2018-01-22T23:47:07.797Z,44.43
2018-01-22T23:49:36.150Z,59.80
2018-01-22T23:52:04.509Z,40.73
2018-01-22T23:54:33.620Z,40.57
2018-01-22T23:57:01.978Z,46.97
2018-01-22T23:59:30.734Z,45.00
